sensor_id;sensor_type;location;lat;lon;timestamp;pressure;altitude;pressure_sealevel;temperature;humidity
35848;BME280;22332;51.954;20.118;2023-04-08T00:02:31;100637.90;;;6.61;87.49
35848;BME280;22332;51.954;20.118;2023-04-08T00:05:37;100645.44;;;6.62;87.40
35848;BME280;22332;51.954;20.118;2023-04-08T00:08:42;100645.21;;;6.65;87.43
35848;BME280;22332;51.954;20.118;2023-04-08T00:11:48;100645.63;;;6.67;87.09
35848;BME280;22332;51.954;20.118;2023-04-08T00:14:53;100645.16;;;6.65;87.11
35848;BME280;22332;51.954;20.118;2023-04-08T00:17:59;100644.17;;;6.65;87.22
35848;BME280;22332;51.954;20.118;2023-04-08T00:21:05;100643.35;;;6.62;87.31
35848;BME280;22332;51.954;20.118;2023-04-08T00:24:10;100650.41;;;6.60;87.25
35848;BME280;22332;51.954;20.118;2023-04-08T00:27:16;100647.67;;;6.56;87.18
35848;BME280;22332;51.954;20.118;2023-04-08T00:30:21;100648.17;;;6.54;87.32
35848;BME280;22332;51.954;20.118;2023-04-08T00:33:27;100648.45;;;6.55;87.37
35848;BME280;22332;51.954;20.118;2023-04-08T00:36:32;100648.70;;;6.56;86.96
35848;BME280;22332;51.954;20.118;2023-04-08T00:39:39;100651.55;;;6.56;86.97
35848;BME280;22332;51.954;20.118;2023-04-08T00:42:44;100650.15;;;6.56;87.29
35848;BME280;22332;51.954;20.118;2023-04-08T00:45:50;100654.66;;;6.55;87.29
35848;BME280;22332;51.954;20.118;2023-04-08T00:48:55;100657.64;;;6.53;87.48
35848;BME280;22332;51.954;20.118;2023-04-08T00:52:01;100654.20;;;6.52;87.43
35848;BME280;22332;51.954;20.118;2023-04-08T00:55:08;100654.60;;;6.51;86.96
35848;BME280;22332;51.954;20.118;2023-04-08T00:58:14;100659.11;;;6.52;87.23
35848;BME280;22332;51.954;20.118;2023-04-08T01:01:24;100666.85;;;6.55;87.01
35848;BME280;22332;51.954;20.118;2023-04-08T01:04:39;100665.33;;;6.57;87.31
35848;BME280;22332;51.954;20.118;2023-04-08T01:07:49;100670.38;;;6.57;87.04
35848;BME280;22332;51.954;20.118;2023-04-08T01:10:59;100667.33;;;6.58;86.78
35848;BME280;22332;51.954;20.118;2023-04-08T01:14:06;100672.30;;;6.55;86.54
35848;BME280;22332;51.954;20.118;2023-04-08T01:17:13;100673.60;;;6.52;86.67
35848;BME280;22332;51.954;20.118;2023-04-08T01:20:19;100678.14;;;6.48;86.60
35848;BME280;22332;51.954;20.118;2023-04-08T01:23:40;100677.36;;;6.42;86.70
35848;BME280;22332;51.954;20.118;2023-04-08T01:26:49;100679.59;;;6.41;86.76
35848;BME280;22332;51.954;20.118;2023-04-08T01:29:55;100682.59;;;6.43;86.85
35848;BME280;22332;51.954;20.118;2023-04-08T01:33:03;100687.02;;;6.45;86.59
35848;BME280;22332;51.954;20.118;2023-04-08T01:36:09;100686.81;;;6.43;86.53
35848;BME280;22332;51.954;20.118;2023-04-08T01:39:15;100688.87;;;6.42;86.29
35848;BME280;22332;51.954;20.118;2023-04-08T01:42:26;100692.52;;;6.38;86.38
35848;BME280;22332;51.954;20.118;2023-04-08T01:45:33;100697.61;;;6.34;86.22
35848;BME280;22332;51.954;20.118;2023-04-08T01:48:38;100700.23;;;6.29;86.15
35848;BME280;22332;51.954;20.118;2023-04-08T01:51:45;100700.51;;;6.26;86.12
35848;BME280;22332;51.954;20.118;2023-04-08T01:54:51;100700.54;;;6.21;86.33
35848;BME280;22332;51.954;20.118;2023-04-08T01:58:00;100701.02;;;6.23;86.19
35848;BME280;22332;51.954;20.118;2023-04-08T02:01:08;100702.72;;;6.27;86.15
35848;BME280;22332;51.954;20.118;2023-04-08T02:04:15;100705.21;;;6.29;85.63
35848;BME280;22332;51.954;20.118;2023-04-08T02:07:22;100706.73;;;6.27;85.74
35848;BME280;22332;51.954;20.118;2023-04-08T02:10:28;100705.21;;;6.26;85.68
35848;BME280;22332;51.954;20.118;2023-04-08T02:13:34;100702.32;;;6.25;85.61
35848;BME280;22332;51.954;20.118;2023-04-08T02:16:44;100705.45;;;6.23;85.23
35848;BME280;22332;51.954;20.118;2023-04-08T02:19:58;100704.66;;;6.19;85.23
35848;BME280;22332;51.954;20.118;2023-04-08T02:23:08;100707.81;;;6.10;85.35
35848;BME280;22332;51.954;20.118;2023-04-08T02:26:16;100707.14;;;6.07;85.13
35848;BME280;22332;51.954;20.118;2023-04-08T02:29:22;100708.14;;;6.11;85.50
35848;BME280;22332;51.954;20.118;2023-04-08T02:32:31;100709.54;;;6.16;85.23
35848;BME280;22332;51.954;20.118;2023-04-08T02:35:39;100712.88;;;6.21;85.30
35848;BME280;22332;51.954;20.118;2023-04-08T02:38:49;100719.16;;;6.22;84.99
35848;BME280;22332;51.954;20.118;2023-04-08T02:41:55;100721.68;;;6.21;85.41
35848;BME280;22332;51.954;20.118;2023-04-08T02:45:00;100722.45;;;6.23;85.16
35848;BME280;22332;51.954;20.118;2023-04-08T02:48:06;100721.27;;;6.22;84.89
35848;BME280;22332;51.954;20.118;2023-04-08T02:51:12;100725.67;;;6.20;84.86
35848;BME280;22332;51.954;20.118;2023-04-08T02:54:17;100726.38;;;6.17;84.99
35848;BME280;22332;51.954;20.118;2023-04-08T02:57:23;100733.42;;;6.15;85.11
35848;BME280;22332;51.954;20.118;2023-04-08T03:00:29;100742.71;;;6.16;85.43
35848;BME280;22332;51.954;20.118;2023-04-08T03:03:34;100745.38;;;6.21;84.94
35848;BME280;22332;51.954;20.118;2023-04-08T03:06:40;100745.23;;;6.25;85.09
35848;BME280;22332;51.954;20.118;2023-04-08T03:09:45;100751.13;;;6.27;84.89
35848;BME280;22332;51.954;20.118;2023-04-08T03:12:51;100753.63;;;6.26;84.54
35848;BME280;22332;51.954;20.118;2023-04-08T03:15:56;100760.80;;;6.25;85.01
35848;BME280;22332;51.954;20.118;2023-04-08T03:19:01;100761.92;;;6.24;84.54
35848;BME280;22332;51.954;20.118;2023-04-08T03:22:07;100763.16;;;6.21;84.78
35848;BME280;22332;51.954;20.118;2023-04-08T03:25:13;100765.17;;;6.18;84.49
35848;BME280;22332;51.954;20.118;2023-04-08T03:28:18;100768.86;;;6.16;84.51
35848;BME280;22332;51.954;20.118;2023-04-08T03:31:24;100773.23;;;6.15;84.50
35848;BME280;22332;51.954;20.118;2023-04-08T03:34:30;100775.31;;;6.13;84.48
35848;BME280;22332;51.954;20.118;2023-04-08T03:37:35;100780.84;;;6.16;84.67
35848;BME280;22332;51.954;20.118;2023-04-08T03:40:41;100781.84;;;6.17;84.33
35848;BME280;22332;51.954;20.118;2023-04-08T03:43:46;100785.77;;;6.17;84.34
35848;BME280;22332;51.954;20.118;2023-04-08T03:46:52;100788.83;;;6.19;84.71
35848;BME280;22332;51.954;20.118;2023-04-08T03:49:57;100793.16;;;6.20;84.07
35848;BME280;22332;51.954;20.118;2023-04-08T03:53:03;100796.59;;;6.21;83.98
35848;BME280;22332;51.954;20.118;2023-04-08T03:56:08;100799.65;;;6.20;84.08
35848;BME280;22332;51.954;20.118;2023-04-08T03:59:14;100801.95;;;6.15;83.90
35848;BME280;22332;51.954;20.118;2023-04-08T04:02:19;100804.87;;;6.14;84.15
35848;BME280;22332;51.954;20.118;2023-04-08T04:05:25;100809.20;;;6.13;83.99
35848;BME280;22332;51.954;20.118;2023-04-08T04:08:30;100808.58;;;6.14;84.04
35848;BME280;22332;51.954;20.118;2023-04-08T04:11:36;100811.94;;;6.14;83.87
35848;BME280;22332;51.954;20.118;2023-04-08T04:14:41;100818.64;;;6.17;84.00
35848;BME280;22332;51.954;20.118;2023-04-08T04:17:49;100816.94;;;6.18;83.81
35848;BME280;22332;51.954;20.118;2023-04-08T04:20:55;100822.30;;;6.17;83.75
35848;BME280;22332;51.954;20.118;2023-04-08T04:24:00;100828.27;;;6.15;83.86
35848;BME280;22332;51.954;20.118;2023-04-08T04:27:05;100826.44;;;6.16;84.02
35848;BME280;22332;51.954;20.118;2023-04-08T04:30:11;100831.45;;;6.15;83.84
35848;BME280;22332;51.954;20.118;2023-04-08T04:33:18;100833.41;;;6.15;83.95
35848;BME280;22332;51.954;20.118;2023-04-08T04:36:25;100837.63;;;6.13;83.56
35848;BME280;22332;51.954;20.118;2023-04-08T04:39:30;100842.16;;;6.08;83.90
35848;BME280;22332;51.954;20.118;2023-04-08T04:42:36;100844.64;;;6.06;83.88
35848;BME280;22332;51.954;20.118;2023-04-08T04:45:41;100847.58;;;6.07;83.89
35848;BME280;22332;51.954;20.118;2023-04-08T04:48:48;100852.61;;;6.11;83.90
35848;BME280;22332;51.954;20.118;2023-04-08T04:51:54;100856.15;;;6.16;83.96
35848;BME280;22332;51.954;20.118;2023-04-08T04:54:59;100856.61;;;6.24;83.93
35848;BME280;22332;51.954;20.118;2023-04-08T04:58:05;100859.45;;;6.34;83.45
35848;BME280;22332;51.954;20.118;2023-04-08T05:01:10;100862.12;;;6.39;83.55
35848;BME280;22332;51.954;20.118;2023-04-08T05:04:16;100864.73;;;6.41;83.13
35848;BME280;22332;51.954;20.118;2023-04-08T05:07:21;100867.52;;;6.42;83.02
35848;BME280;22332;51.954;20.118;2023-04-08T05:10:27;100864.98;;;6.48;82.80
35848;BME280;22332;51.954;20.118;2023-04-08T05:13:33;100868.48;;;6.53;82.93
35848;BME280;22332;51.954;20.118;2023-04-08T05:16:39;100868.52;;;6.55;82.57
35848;BME280;22332;51.954;20.118;2023-04-08T05:19:45;100869.86;;;6.59;82.69
35848;BME280;22332;51.954;20.118;2023-04-08T05:22:50;100871.73;;;6.64;82.60
35848;BME280;22332;51.954;20.118;2023-04-08T05:25:56;100870.05;;;6.70;82.54
35848;BME280;22332;51.954;20.118;2023-04-08T05:29:01;100875.36;;;6.75;82.06
35848;BME280;22332;51.954;20.118;2023-04-08T05:32:07;100873.17;;;6.76;82.07
35848;BME280;22332;51.954;20.118;2023-04-08T05:35:12;100871.61;;;6.74;82.19
35848;BME280;22332;51.954;20.118;2023-04-08T05:38:18;100870.90;;;6.71;82.05
35848;BME280;22332;51.954;20.118;2023-04-08T05:41:23;100873.92;;;6.68;81.84
35848;BME280;22332;51.954;20.118;2023-04-08T05:44:29;100878.27;;;6.64;82.04
35848;BME280;22332;51.954;20.118;2023-04-08T05:47:34;100876.16;;;6.59;81.55
35848;BME280;22332;51.954;20.118;2023-04-08T05:50:40;100879.68;;;6.57;81.92
35848;BME280;22332;51.954;20.118;2023-04-08T05:53:46;100882.81;;;6.58;81.68
35848;BME280;22332;51.954;20.118;2023-04-08T05:56:52;100879.77;;;6.58;81.56
35848;BME280;22332;51.954;20.118;2023-04-08T05:59:57;100884.98;;;6.57;81.68
35848;BME280;22332;51.954;20.118;2023-04-08T06:03:03;100886.00;;;6.55;81.32
35848;BME280;22332;51.954;20.118;2023-04-08T06:06:11;100889.66;;;6.56;81.22
35848;BME280;22332;51.954;20.118;2023-04-08T06:09:16;100890.48;;;6.52;80.78
35848;BME280;22332;51.954;20.118;2023-04-08T06:12:22;100892.70;;;6.51;81.10
35848;BME280;22332;51.954;20.118;2023-04-08T06:15:27;100893.04;;;6.53;80.89
35848;BME280;22332;51.954;20.118;2023-04-08T06:18:33;100896.18;;;6.59;80.89
35848;BME280;22332;51.954;20.118;2023-04-08T06:21:38;100896.77;;;6.65;80.76
35848;BME280;22332;51.954;20.118;2023-04-08T06:24:44;100899.77;;;6.67;80.12
35848;BME280;22332;51.954;20.118;2023-04-08T06:27:51;100901.13;;;6.71;80.38
35848;BME280;22332;51.954;20.118;2023-04-08T06:30:56;100904.00;;;6.73;79.92
35848;BME280;22332;51.954;20.118;2023-04-08T06:34:02;100906.05;;;6.76;80.12
35848;BME280;22332;51.954;20.118;2023-04-08T06:37:07;100913.27;;;6.79;80.06
35848;BME280;22332;51.954;20.118;2023-04-08T06:40:13;100914.52;;;6.81;79.95
35848;BME280;22332;51.954;20.118;2023-04-08T06:43:18;100918.97;;;6.83;79.84
35848;BME280;22332;51.954;20.118;2023-04-08T06:46:24;100920.50;;;6.84;79.67
35848;BME280;22332;51.954;20.118;2023-04-08T06:49:30;100921.80;;;6.86;79.69
35848;BME280;22332;51.954;20.118;2023-04-08T06:52:35;100924.04;;;6.89;79.08
35848;BME280;22332;51.954;20.118;2023-04-08T06:55:41;100927.34;;;6.90;79.42
35848;BME280;22332;51.954;20.118;2023-04-08T06:58:47;100931.43;;;6.94;79.41
35848;BME280;22332;51.954;20.118;2023-04-08T07:01:52;100938.30;;;6.99;79.45
35848;BME280;22332;51.954;20.118;2023-04-08T07:04:57;100942.13;;;7.05;79.00
35848;BME280;22332;51.954;20.118;2023-04-08T07:08:03;100942.89;;;7.09;78.89
35848;BME280;22332;51.954;20.118;2023-04-08T07:11:08;100945.08;;;7.20;78.96
35848;BME280;22332;51.954;20.118;2023-04-08T07:14:14;100944.23;;;7.32;78.64
35848;BME280;22332;51.954;20.118;2023-04-08T07:17:19;100942.71;;;7.40;78.53
35848;BME280;22332;51.954;20.118;2023-04-08T07:20:25;100943.35;;;7.48;79.00
35848;BME280;22332;51.954;20.118;2023-04-08T07:23:30;100946.55;;;7.57;78.56
35848;BME280;22332;51.954;20.118;2023-04-08T07:26:36;100947.61;;;7.64;78.38
35848;BME280;22332;51.954;20.118;2023-04-08T07:29:42;100945.67;;;7.69;78.28
35848;BME280;22332;51.954;20.118;2023-04-08T07:32:47;100946.73;;;7.76;78.32
35848;BME280;22332;51.954;20.118;2023-04-08T07:35:53;100949.65;;;7.79;78.04
35848;BME280;22332;51.954;20.118;2023-04-08T07:38:58;100949.35;;;7.78;77.33
35848;BME280;22332;51.954;20.118;2023-04-08T07:42:04;100949.74;;;7.80;77.85
35848;BME280;22332;51.954;20.118;2023-04-08T07:45:10;100942.54;;;7.87;77.96
35848;BME280;22332;51.954;20.118;2023-04-08T07:48:16;100946.75;;;7.92;77.41
35848;BME280;22332;51.954;20.118;2023-04-08T07:51:21;100945.02;;;7.96;76.98
35848;BME280;22332;51.954;20.118;2023-04-08T07:54:27;100942.98;;;7.99;77.24
35848;BME280;22332;51.954;20.118;2023-04-08T07:57:32;100948.66;;;8.06;77.22
35848;BME280;22332;51.954;20.118;2023-04-08T08:00:38;100944.85;;;8.12;77.14
35848;BME280;22332;51.954;20.118;2023-04-08T08:03:44;100946.03;;;8.17;77.03
35848;BME280;22332;51.954;20.118;2023-04-08T08:06:50;100948.07;;;8.22;77.18
35848;BME280;22332;51.954;20.118;2023-04-08T08:09:56;100949.11;;;8.30;76.93
35848;BME280;22332;51.954;20.118;2023-04-08T08:13:01;100944.59;;;8.33;76.20
35848;BME280;22332;51.954;20.118;2023-04-08T08:16:07;100944.69;;;8.32;75.89
35848;BME280;22332;51.954;20.118;2023-04-08T08:19:14;100947.27;;;8.39;76.01
35848;BME280;22332;51.954;20.118;2023-04-08T08:22:19;100951.16;;;8.42;75.20
35848;BME280;22332;51.954;20.118;2023-04-08T08:25:25;100951.27;;;8.41;74.24
35848;BME280;22332;51.954;20.118;2023-04-08T08:28:30;100947.36;;;8.41;75.46
35848;BME280;22332;51.954;20.118;2023-04-08T08:31:36;100941.44;;;8.51;76.36
35848;BME280;22332;51.954;20.118;2023-04-08T08:34:41;100938.61;;;8.61;76.11
35848;BME280;22332;51.954;20.118;2023-04-08T08:37:47;100942.48;;;8.71;75.21
35848;BME280;22332;51.954;20.118;2023-04-08T08:40:55;100942.02;;;8.79;75.57
35848;BME280;22332;51.954;20.118;2023-04-08T08:44:03;100940.61;;;8.92;75.70
35848;BME280;22332;51.954;20.118;2023-04-08T08:47:09;100942.81;;;9.04;75.51
35848;BME280;22332;51.954;20.118;2023-04-08T08:50:15;100940.73;;;9.12;75.31
35848;BME280;22332;51.954;20.118;2023-04-08T08:53:20;100946.61;;;9.14;73.80
35848;BME280;22332;51.954;20.118;2023-04-08T08:56:27;100941.73;;;9.15;74.45
35848;BME280;22332;51.954;20.118;2023-04-08T08:59:32;100947.34;;;9.23;74.81
35848;BME280;22332;51.954;20.118;2023-04-08T09:02:38;100952.39;;;9.32;74.84
35848;BME280;22332;51.954;20.118;2023-04-08T09:05:51;100949.92;;;9.42;74.56
35848;BME280;22332;51.954;20.118;2023-04-08T09:08:56;100945.75;;;9.86;79.45
35848;BME280;22332;51.954;20.118;2023-04-08T09:12:04;100939.88;;;10.33;75.54
35848;BME280;22332;51.954;20.118;2023-04-08T09:15:10;100942.65;;;10.23;71.16
35848;BME280;22332;51.954;20.118;2023-04-08T09:18:22;100946.36;;;10.18;72.70
35848;BME280;22332;51.954;20.118;2023-04-08T09:21:28;100942.54;;;10.42;72.33
35848;BME280;22332;51.954;20.118;2023-04-08T09:24:35;100941.20;;;10.33;70.43
35848;BME280;22332;51.954;20.118;2023-04-08T09:27:41;100946.08;;;10.17;69.55
35848;BME280;22332;51.954;20.118;2023-04-08T09:30:46;100947.65;;;10.05;71.10
35848;BME280;22332;51.954;20.118;2023-04-08T09:33:54;100950.16;;;10.07;72.18
35848;BME280;22332;51.954;20.118;2023-04-08T09:37:00;100945.91;;;10.17;73.40
35848;BME280;22332;51.954;20.118;2023-04-08T09:40:08;100944.60;;;10.36;73.38
35848;BME280;22332;51.954;20.118;2023-04-08T09:43:13;100944.77;;;10.59;73.60
35848;BME280;22332;51.954;20.118;2023-04-08T09:46:26;100940.80;;;10.89;72.13
35848;BME280;22332;51.954;20.118;2023-04-08T09:49:37;100945.27;;;10.83;69.56
35848;BME280;22332;51.954;20.118;2023-04-08T09:52:47;100941.88;;;10.75;72.12
35848;BME280;22332;51.954;20.118;2023-04-08T09:55:58;100940.41;;;10.76;68.72
35848;BME280;22332;51.954;20.118;2023-04-08T09:59:12;100941.45;;;10.78;72.27
35848;BME280;22332;51.954;20.118;2023-04-08T10:02:27;100942.67;;;11.08;73.02
35848;BME280;22332;51.954;20.118;2023-04-08T10:05:37;100944.98;;;11.06;68.24
35848;BME280;22332;51.954;20.118;2023-04-08T10:08:45;100939.71;;;10.93;70.50
35848;BME280;22332;51.954;20.118;2023-04-08T10:11:50;100938.48;;;10.79;69.42
35848;BME280;22332;51.954;20.118;2023-04-08T10:15:27;100941.52;;;10.73;70.42
35848;BME280;22332;51.954;20.118;2023-04-08T10:18:33;100940.15;;;10.93;71.68
35848;BME280;22332;51.954;20.118;2023-04-08T10:21:40;100946.88;;;11.03;69.16
35848;BME280;22332;51.954;20.118;2023-04-08T10:28:28;100943.71;;;10.92;68.65
35848;BME280;22332;51.954;20.118;2023-04-08T10:31:40;100939.52;;;11.01;68.25
35848;BME280;22332;51.954;20.118;2023-04-08T10:34:54;100938.73;;;11.16;69.68
35848;BME280;22332;51.954;20.118;2023-04-08T10:37:59;100938.96;;;11.37;69.70
35848;BME280;22332;51.954;20.118;2023-04-08T10:41:06;100935.17;;;11.51;69.47
35848;BME280;22332;51.954;20.118;2023-04-08T10:44:17;100931.81;;;11.66;69.98
35848;BME280;22332;51.954;20.118;2023-04-08T10:47:27;100930.25;;;11.69;69.84
35848;BME280;22332;51.954;20.118;2023-04-08T10:50:32;100934.58;;;11.61;69.13
35848;BME280;22332;51.954;20.118;2023-04-08T10:53:39;100935.58;;;11.51;69.53
35848;BME280;22332;51.954;20.118;2023-04-08T10:56:48;100939.98;;;11.39;69.37
35848;BME280;22332;51.954;20.118;2023-04-08T10:59:55;100934.75;;;11.42;69.80
35848;BME280;22332;51.954;20.118;2023-04-08T11:03:02;100939.27;;;11.44;69.68
35848;BME280;22332;51.954;20.118;2023-04-08T11:06:09;100932.88;;;11.45;69.66
35848;BME280;22332;51.954;20.118;2023-04-08T11:09:15;100932.76;;;11.48;69.43
35848;BME280;22332;51.954;20.118;2023-04-08T11:12:21;100934.05;;;11.53;69.17
35848;BME280;22332;51.954;20.118;2023-04-08T11:15:28;100931.80;;;11.62;68.47
35848;BME280;22332;51.954;20.118;2023-04-08T11:18:35;100933.55;;;11.72;68.43
35848;BME280;22332;51.954;20.118;2023-04-08T11:21:42;100932.31;;;11.80;68.95
35848;BME280;22332;51.954;20.118;2023-04-08T11:24:47;100926.38;;;11.88;67.97
35848;BME280;22332;51.954;20.118;2023-04-08T11:27:54;100929.23;;;11.94;68.19
35848;BME280;22332;51.954;20.118;2023-04-08T11:31:00;100921.58;;;12.05;67.56
35848;BME280;22332;51.954;20.118;2023-04-08T11:34:06;100919.59;;;12.20;67.82
35848;BME280;22332;51.954;20.118;2023-04-08T11:37:12;100912.27;;;12.39;67.67
35848;BME280;22332;51.954;20.118;2023-04-08T11:40:21;100906.00;;;12.69;67.06
35848;BME280;22332;51.954;20.118;2023-04-08T11:43:27;100909.23;;;12.97;67.16
35848;BME280;22332;51.954;20.118;2023-04-08T11:46:33;100907.56;;;13.17;66.75
35848;BME280;22332;51.954;20.118;2023-04-08T11:49:46;100902.90;;;13.38;66.14
35848;BME280;22332;51.954;20.118;2023-04-08T11:52:52;100902.17;;;13.55;66.58
35848;BME280;22332;51.954;20.118;2023-04-08T11:56:05;100901.98;;;13.65;66.80
35848;BME280;22332;51.954;20.118;2023-04-08T11:59:19;100904.01;;;13.57;66.26
35848;BME280;22332;51.954;20.118;2023-04-08T12:02:25;100903.27;;;13.41;66.08
35848;BME280;22332;51.954;20.118;2023-04-08T12:05:30;100897.45;;;13.27;66.02
35848;BME280;22332;51.954;20.118;2023-04-08T12:08:36;100895.61;;;13.17;65.98
35848;BME280;22332;51.954;20.118;2023-04-08T12:11:42;100897.48;;;13.17;65.39
35848;BME280;22332;51.954;20.118;2023-04-08T12:14:48;100895.69;;;13.19;65.79
35848;BME280;22332;51.954;20.118;2023-04-08T12:17:54;100892.85;;;13.18;61.55
35848;BME280;22332;51.954;20.118;2023-04-08T12:20:59;100889.68;;;13.12;60.82
35848;BME280;22332;51.954;20.118;2023-04-08T12:24:05;100888.16;;;13.26;63.92
35848;BME280;22332;51.954;20.118;2023-04-08T12:27:10;100881.66;;;13.48;64.33
35848;BME280;22332;51.954;20.118;2023-04-08T12:30:16;100885.34;;;13.64;63.38
35848;BME280;22332;51.954;20.118;2023-04-08T12:33:21;100880.98;;;13.63;63.71
35848;BME280;22332;51.954;20.118;2023-04-08T12:36:26;100883.23;;;13.59;63.16
35848;BME280;22332;51.954;20.118;2023-04-08T12:39:32;100880.29;;;13.60;63.23
35848;BME280;22332;51.954;20.118;2023-04-08T12:42:38;100875.82;;;13.68;63.50
35848;BME280;22332;51.954;20.118;2023-04-08T12:45:43;100875.11;;;13.86;63.42
35848;BME280;22332;51.954;20.118;2023-04-08T12:48:49;100872.05;;;14.02;63.29
35848;BME280;22332;51.954;20.118;2023-04-08T12:51:54;100869.83;;;14.16;62.70
35848;BME280;22332;51.954;20.118;2023-04-08T12:54:59;100864.95;;;14.28;60.95
35848;BME280;22332;51.954;20.118;2023-04-08T12:58:05;100865.13;;;14.32;62.17
35848;BME280;22332;51.954;20.118;2023-04-08T13:01:10;100861.03;;;14.33;62.55
35848;BME280;22332;51.954;20.118;2023-04-08T13:04:16;100861.45;;;14.31;60.99
35848;BME280;22332;51.954;20.118;2023-04-08T13:07:23;100867.29;;;14.18;61.21
35848;BME280;22332;51.954;20.118;2023-04-08T13:10:28;100863.95;;;14.05;61.43
35848;BME280;22332;51.954;20.118;2023-04-08T13:13:34;100861.88;;;13.87;60.92
35848;BME280;22332;51.954;20.118;2023-04-08T13:16:39;100868.70;;;13.61;59.56
35848;BME280;22332;51.954;20.118;2023-04-08T13:19:45;100869.01;;;13.39;60.98
35848;BME280;22332;51.954;20.118;2023-04-08T13:22:53;100866.98;;;13.22;60.36
35848;BME280;22332;51.954;20.118;2023-04-08T13:25:58;100866.06;;;13.00;59.00
35848;BME280;22332;51.954;20.118;2023-04-08T13:29:04;100864.80;;;12.86;60.77
35848;BME280;22332;51.954;20.118;2023-04-08T13:32:09;100861.65;;;12.84;61.07
35848;BME280;22332;51.954;20.118;2023-04-08T13:35:15;100858.12;;;12.85;60.39
35848;BME280;22332;51.954;20.118;2023-04-08T13:38:20;100855.85;;;12.86;60.83
35848;BME280;22332;51.954;20.118;2023-04-08T13:41:26;100853.20;;;12.93;60.61
35848;BME280;22332;51.954;20.118;2023-04-08T13:44:31;100850.56;;;13.02;60.70
35848;BME280;22332;51.954;20.118;2023-04-08T13:47:37;100846.69;;;13.19;60.45
35848;BME280;22332;51.954;20.118;2023-04-08T13:50:43;100843.40;;;13.41;60.76
35848;BME280;22332;51.954;20.118;2023-04-08T13:53:48;100834.77;;;13.54;60.44
35848;BME280;22332;51.954;20.118;2023-04-08T13:56:54;100835.83;;;13.63;60.15
35848;BME280;22332;51.954;20.118;2023-04-08T14:00:00;100831.83;;;13.67;59.69
35848;BME280;22332;51.954;20.118;2023-04-08T14:03:14;100831.64;;;13.68;58.87
35848;BME280;22332;51.954;20.118;2023-04-08T14:06:19;100828.34;;;13.61;58.69
35848;BME280;22332;51.954;20.118;2023-04-08T14:09:25;100831.15;;;13.44;59.07
35848;BME280;22332;51.954;20.118;2023-04-08T14:12:30;100830.95;;;13.28;58.65
35848;BME280;22332;51.954;20.118;2023-04-08T14:15:36;100829.42;;;13.17;59.25
35848;BME280;22332;51.954;20.118;2023-04-08T14:18:41;100830.98;;;13.10;57.89
35848;BME280;22332;51.954;20.118;2023-04-08T14:21:46;100826.84;;;13.08;58.80
35848;BME280;22332;51.954;20.118;2023-04-08T14:24:52;100828.46;;;13.17;58.80
35848;BME280;22332;51.954;20.118;2023-04-08T14:27:57;100827.44;;;13.27;54.94
35848;BME280;22332;51.954;20.118;2023-04-08T14:31:03;100820.52;;;13.32;54.67
35848;BME280;22332;51.954;20.118;2023-04-08T14:34:09;100818.83;;;13.40;55.27
35848;BME280;22332;51.954;20.118;2023-04-08T14:37:14;100815.23;;;13.41;53.69
35848;BME280;22332;51.954;20.118;2023-04-08T14:40:22;100818.77;;;13.32;53.95
35848;BME280;22332;51.954;20.118;2023-04-08T14:43:27;100817.86;;;13.30;54.54
35848;BME280;22332;51.954;20.118;2023-04-08T14:46:33;100817.30;;;13.32;54.58
35848;BME280;22332;51.954;20.118;2023-04-08T14:49:38;100820.60;;;13.39;55.83
35848;BME280;22332;51.954;20.118;2023-04-08T14:52:44;100821.92;;;13.43;55.02
35848;BME280;22332;51.954;20.118;2023-04-08T14:55:51;100818.65;;;13.42;54.57
35848;BME280;22332;51.954;20.118;2023-04-08T14:58:57;100812.87;;;13.46;55.49
35848;BME280;22332;51.954;20.118;2023-04-08T15:02:03;100813.48;;;13.45;55.61
35848;BME280;22332;51.954;20.118;2023-04-08T15:05:09;100816.12;;;13.41;53.34
35848;BME280;22332;51.954;20.118;2023-04-08T15:08:14;100816.88;;;13.29;54.22
35848;BME280;22332;51.954;20.118;2023-04-08T15:11:20;100815.48;;;13.24;55.12
35848;BME280;22332;51.954;20.118;2023-04-08T15:14:26;100820.29;;;13.19;55.88
35848;BME280;22332;51.954;20.118;2023-04-08T15:17:32;100823.38;;;13.15;54.87
35848;BME280;22332;51.954;20.118;2023-04-08T15:20:37;100825.16;;;13.11;55.78
35848;BME280;22332;51.954;20.118;2023-04-08T15:23:43;100821.21;;;13.11;55.50
35848;BME280;22332;51.954;20.118;2023-04-08T15:26:49;100822.21;;;13.12;55.94
35848;BME280;22332;51.954;20.118;2023-04-08T15:29:54;100821.50;;;13.15;55.61
35848;BME280;22332;51.954;20.118;2023-04-08T15:32:59;100822.47;;;13.18;55.17
35848;BME280;22332;51.954;20.118;2023-04-08T15:36:06;100821.60;;;13.20;54.77
35848;BME280;22332;51.954;20.118;2023-04-08T15:39:11;100827.61;;;13.20;54.48
35848;BME280;22332;51.954;20.118;2023-04-08T15:42:17;100826.48;;;13.21;55.00
35848;BME280;22332;51.954;20.118;2023-04-08T15:45:22;100826.22;;;13.18;55.10
35848;BME280;22332;51.954;20.118;2023-04-08T15:48:28;100827.67;;;13.16;55.06
35848;BME280;22332;51.954;20.118;2023-04-08T15:51:33;100825.67;;;13.09;54.72
35848;BME280;22332;51.954;20.118;2023-04-08T15:54:39;100830.89;;;13.02;55.07
35848;BME280;22332;51.954;20.118;2023-04-08T15:57:44;100831.59;;;12.93;53.52
35848;BME280;22332;51.954;20.118;2023-04-08T16:00:49;100837.21;;;12.82;54.11
35848;BME280;22332;51.954;20.118;2023-04-08T16:03:55;100837.68;;;12.75;55.06
35848;BME280;22332;51.954;20.118;2023-04-08T16:07:01;100840.29;;;12.72;55.02
35848;BME280;22332;51.954;20.118;2023-04-08T16:10:08;100839.36;;;12.66;54.63
35848;BME280;22332;51.954;20.118;2023-04-08T16:13:13;100840.41;;;12.60;55.38